Time;durP1;ratioP1;P1;durP2;ratioP2;P2;SDS_P1;SDS_P2;PMS_P1;PMS_P2;Temp;Humidity;BMP_temperature;BMP_pressure;BME280_temperature;BME280_humidity;BME280_pressure;Samples;Min_cycle;Max_cycle;Signal;HPM_P1;HPM_P2
2023/08/23 00:01:24;;;;;;;2.07;1.97;;;;;;;;;;5049064;28;20437;-71
2023/08/23 00:03:54;;;;;;;4.50;1.70;;;;;;;;;;5048071;28;20480;-71
2023/08/23 00:06:20;;;;;;;2.70;1.80;;;;;;;;;;5047929;28;20434;-70
2023/08/23 00:08:46;;;;;;;4.70;1.70;;;;;;;;;;5046973;28;20790;-70
2023/08/23 00:11:11;;;;;;;1.87;1.77;;;;;;;;;;5047255;28;20434;-69
2023/08/23 00:13:37;;;;;;;1.90;1.80;;;;;;;;;;5049090;28;20423;-69
2023/08/23 00:16:03;;;;;;;2.20;1.83;;;;;;;;;;5046292;28;20269;-70
2023/08/23 00:18:29;;;;;;;1.77;1.63;;;;;;;;;;5046388;28;20218;-69
2023/08/23 00:20:55;;;;;;;2.00;1.90;;;;;;;;;;5048002;28;20532;-70
2023/08/23 00:23:21;;;;;;;2.83;1.30;;;;;;;;;;5048796;28;20184;-71
2023/08/23 00:25:47;;;;;;;2.13;1.90;;;;;;;;;;5049491;28;20198;-70
2023/08/23 00:28:15;;;;;;;1.70;1.53;;;;;;;;;;5052167;28;20410;-70
2023/08/23 00:30:48;;;;;;;2.93;1.30;;;;;;;;;;5052352;28;20433;-69
2023/08/23 00:33:14;;;;;;;2.13;2.03;;;;;;;;;;5050751;28;20528;-71
2023/08/23 00:35:40;;;;;;;5.70;1.83;;;;;;;;;;5049022;28;20581;-71
2023/08/23 00:38:06;;;;;;;1.90;1.67;;;;;;;;;;5051603;28;20195;-71
2023/08/23 00:40:32;;;;;;;2.30;1.73;;;;;;;;;;5050894;28;20438;-70
2023/08/23 00:42:58;;;;;;;3.70;1.60;;;;;;;;;;5050091;28;20331;-69
2023/08/23 00:45:24;;;;;;;1.67;1.57;;;;;;;;;;5050822;28;20460;-71
2023/08/23 00:47:50;;;;;;;5.40;1.70;;;;;;;;;;5047614;28;21266;-71
2023/08/23 00:50:16;;;;;;;4.77;1.50;;;;;;;;;;5049145;28;20987;-71
2023/08/23 00:52:42;;;;;;;1.90;1.80;;;;;;;;;;5048627;28;20985;-71
2023/08/23 00:55:08;;;;;;;1.87;1.77;;;;;;;;;;5049252;28;20492;-70
2023/08/23 00:57:34;;;;;;;6.13;1.80;;;;;;;;;;5051480;28;20492;-69
2023/08/23 01:00:01;;;;;;;1.97;1.97;;;;;;;;;;5047306;28;20426;-70
2023/08/23 01:02:26;;;;;;;2.20;2.00;;;;;;;;;;5049614;28;20422;-70
2023/08/23 01:04:52;;;;;;;1.50;1.50;;;;;;;;;;5052001;28;20902;-70
2023/08/23 01:07:24;;;;;;;1.50;1.40;;;;;;;;;;5050640;28;20556;-70
2023/08/23 01:10:09;;;;;;;4.00;1.90;;;;;;;;;;5051852;28;20419;-70
2023/08/23 01:12:43;;;;;;;2.87;1.70;;;;;;;;;;5052111;28;20480;-71
2023/08/23 01:15:11;;;;;;;3.90;1.40;;;;;;;;;;5047768;28;20481;-72
2023/08/23 01:17:41;;;;;;;1.33;1.33;;;;;;;;;;5050506;28;20465;-71
2023/08/23 01:20:09;;;;;;;1.50;1.40;;;;;;;;;;5050942;28;20426;-70
2023/08/23 01:22:36;;;;;;;1.50;1.50;;;;;;;;;;5051744;28;20419;-70
2023/08/23 01:25:02;;;;;;;2.27;1.73;;;;;;;;;;5049774;28;20434;-70
2023/08/23 01:27:28;;;;;;;2.20;1.70;;;;;;;;;;5049499;28;20435;-69
2023/08/23 01:29:54;;;;;;;2.13;1.50;;;;;;;;;;5049297;28;20441;-69
2023/08/23 01:32:20;;;;;;;2.07;1.97;;;;;;;;;;5051593;28;20418;-70
2023/08/23 01:34:49;;;;;;;3.87;2.00;;;;;;;;;;5049410;28;20434;-70
2023/08/23 01:37:15;;;;;;;3.13;1.93;;;;;;;;;;5049642;28;20681;-71
2023/08/23 01:39:42;;;;;;;2.73;1.93;;;;;;;;;;5048066;28;20457;-70
2023/08/23 01:42:08;;;;;;;3.90;1.97;;;;;;;;;;5047317;28;20434;-69
2023/08/23 01:44:34;;;;;;;4.07;2.17;;;;;;;;;;5049961;28;20442;-69
2023/08/23 01:47:00;;;;;;;4.90;1.87;;;;;;;;;;5048253;28;20483;-70
2023/08/23 01:49:26;;;;;;;4.33;1.80;;;;;;;;;;5049472;28;20813;-70
2023/08/23 01:51:52;;;;;;;2.37;2.13;;;;;;;;;;5051048;28;20457;-69
2023/08/23 01:54:18;;;;;;;1.70;1.63;;;;;;;;;;5045842;28;20472;-69
2023/08/23 01:56:44;;;;;;;2.10;2.00;;;;;;;;;;5050178;28;20938;-69
2023/08/23 01:59:10;;;;;;;7.20;1.90;;;;;;;;;;5048126;28;20528;-70
2023/08/23 02:01:36;;;;;;;2.23;1.90;;;;;;;;;;5050946;28;20453;-69
2023/08/23 02:04:02;;;;;;;3.10;2.00;;;;;;;;;;5047585;28;20442;-69
2023/08/23 02:06:28;;;;;;;2.60;2.40;;;;;;;;;;5048481;28;20447;-69
2023/08/23 02:08:54;;;;;;;2.73;1.87;;;;;;;;;;5048142;28;20186;-69
2023/08/23 02:11:20;;;;;;;4.50;2.20;;;;;;;;;;5050406;28;20564;-69
2023/08/23 02:13:46;;;;;;;3.10;2.00;;;;;;;;;;5049149;28;20418;-70
2023/08/23 02:16:12;;;;;;;2.83;1.87;;;;;;;;;;5050068;28;20531;-69
2023/08/23 02:18:38;;;;;;;6.83;2.10;;;;;;;;;;5050345;28;20418;-69
2023/08/23 02:21:04;;;;;;;1.63;1.63;;;;;;;;;;5050720;28;20423;-70
2023/08/23 02:23:29;;;;;;;2.37;2.17;;;;;;;;;;5050352;28;20517;-69
2023/08/23 02:25:55;;;;;;;3.07;1.70;;;;;;;;;;5050285;28;20954;-69
2023/08/23 02:28:21;;;;;;;13.50;2.80;;;;;;;;;;5046493;28;20636;-70
2023/08/23 02:30:47;;;;;;;3.10;2.83;;;;;;;;;;5049859;28;20434;-70
2023/08/23 02:33:14;;;;;;;3.30;2.57;;;;;;;;;;5050358;28;20422;-69
2023/08/23 02:35:41;;;;;;;3.50;2.50;;;;;;;;;;5048504;28;20485;-69
2023/08/23 02:38:08;;;;;;;7.20;2.30;;;;;;;;;;5045525;28;20439;-70
2023/08/23 02:40:34;;;;;;;3.80;2.83;;;;;;;;;;5047805;28;20449;-69
2023/08/23 02:43:00;;;;;;;4.83;3.37;;;;;;;;;;5047548;28;20422;-69
2023/08/23 02:45:26;;;;;;;3.10;2.13;;;;;;;;;;5048749;28;20464;-68
2023/08/23 02:47:52;;;;;;;6.20;3.10;;;;;;;;;;5048921;28;20426;-68
2023/08/23 02:50:18;;;;;;;2.87;2.23;;;;;;;;;;5039768;28;20455;-69
2023/08/23 02:52:44;;;;;;;2.50;2.40;;;;;;;;;;5047786;28;20231;-69
2023/08/23 02:55:10;;;;;;;17.20;3.30;;;;;;;;;;5046889;28;21005;-69
2023/08/23 02:57:36;;;;;;;4.10;2.70;;;;;;;;;;5049744;28;20437;-69
2023/08/23 03:00:02;;;;;;;6.37;2.50;;;;;;;;;;5047604;28;20187;-70
2023/08/23 03:02:28;;;;;;;3.50;3.00;;;;;;;;;;5045136;28;20550;-69
2023/08/23 03:04:54;;;;;;;3.57;3.27;;;;;;;;;;5047651;28;20433;-69
2023/08/23 03:07:20;;;;;;;4.90;2.83;;;;;;;;;;5046004;28;20212;-70
2023/08/23 03:09:45;;;;;;;3.03;2.83;;;;;;;;;;5048153;28;20524;-69
2023/08/23 03:12:11;;;;;;;2.97;2.83;;;;;;;;;;5048480;28;20453;-70
2023/08/23 03:14:37;;;;;;;3.50;3.27;;;;;;;;;;5045971;28;20192;-70
2023/08/23 03:17:03;;;;;;;4.23;3.60;;;;;;;;;;5046497;28;20204;-70
2023/08/23 03:19:29;;;;;;;10.47;3.00;;;;;;;;;;5047847;28;20426;-69
2023/08/23 03:21:55;;;;;;;3.87;3.67;;;;;;;;;;5045895;28;20456;-69
2023/08/23 03:24:21;;;;;;;10.77;3.13;;;;;;;;;;5046251;28;20434;-70
2023/08/23 03:26:47;;;;;;;2.97;2.87;;;;;;;;;;5048249;28;20257;-69
2023/08/23 03:29:13;;;;;;;3.40;3.20;;;;;;;;;;5042639;28;20880;-70
2023/08/23 03:31:39;;;;;;;10.57;4.33;;;;;;;;;;5047647;28;20438;-69
2023/08/23 03:34:05;;;;;;;5.57;3.40;;;;;;;;;;5047076;28;20434;-69
2023/08/23 03:36:31;;;;;;;3.93;3.20;;;;;;;;;;5045713;28;21022;-69
2023/08/23 03:38:57;;;;;;;4.63;2.80;;;;;;;;;;5046616;28;20501;-70
2023/08/23 03:41:23;;;;;;;2.80;2.70;;;;;;;;;;5046041;28;20474;-69
2023/08/23 03:43:49;;;;;;;3.87;3.23;;;;;;;;;;5048558;28;20465;-69
2023/08/23 03:46:15;;;;;;;3.07;2.87;;;;;;;;;;5041569;28;20457;-68
2023/08/23 03:48:41;;;;;;;4.60;3.23;;;;;;;;;;5047289;28;20430;-69
2023/08/23 03:51:07;;;;;;;3.17;3.07;;;;;;;;;;5048805;28;20457;-69
2023/08/23 03:53:33;;;;;;;3.30;3.10;;;;;;;;;;5046699;28;20504;-69
2023/08/23 03:55:59;;;;;;;5.10;3.23;;;;;;;;;;5045963;28;20501;-70
2023/08/23 03:58:25;;;;;;;9.00;4.20;;;;;;;;;;5039961;28;20192;-71
2023/08/23 04:00:54;;;;;;;3.67;3.40;;;;;;;;;;5049197;28;20942;-70
2023/08/23 04:03:20;;;;;;;3.33;3.03;;;;;;;;;;5051976;28;20795;-70
2023/08/23 04:05:46;;;;;;;2.90;2.80;;;;;;;;;;5049031;28;20449;-71
2023/08/23 04:08:13;;;;;;;6.83;3.53;;;;;;;;;;5051567;28;20476;-69
2023/08/23 04:10:39;;;;;;;4.10;3.67;;;;;;;;;;5050299;28;20430;-70
2023/08/23 04:13:05;;;;;;;3.43;3.07;;;;;;;;;;5050150;28;20437;-68
2023/08/23 04:15:31;;;;;;;7.00;3.30;;;;;;;;;;5051993;28;20563;-70
2023/08/23 04:17:57;;;;;;;2.90;2.80;;;;;;;;;;5049089;28;20450;-69
2023/08/23 04:20:23;;;;;;;2.80;2.70;;;;;;;;;;5052710;28;21009;-70
2023/08/23 04:22:49;;;;;;;7.57;2.90;;;;;;;;;;5047268;28;20187;-71
2023/08/23 04:25:15;;;;;;;3.20;3.10;;;;;;;;;;5043017;28;20430;-70
2023/08/23 04:27:41;;;;;;;5.93;3.17;;;;;;;;;;5049177;28;20507;-70
2023/08/23 04:30:07;;;;;;;4.67;2.60;;;;;;;;;;5051572;28;20430;-70
2023/08/23 04:32:33;;;;;;;3.43;3.23;;;;;;;;;;5051400;28;20441;-69
2023/08/23 04:34:59;;;;;;;2.73;2.57;;;;;;;;;;5051192;28;20556;-69
2023/08/23 04:37:25;;;;;;;3.57;3.37;;;;;;;;;;5046376;28;20517;-69
2023/08/23 04:39:51;;;;;;;8.47;3.33;;;;;;;;;;5051442;28;20182;-69
2023/08/23 04:42:17;;;;;;;4.40;3.80;;;;;;;;;;5051110;28;20935;-69
2023/08/23 04:44:43;;;;;;;3.47;3.17;;;;;;;;;;5051129;28;20830;-69
2023/08/23 04:47:09;;;;;;;9.27;3.80;;;;;;;;;;5047854;28;20477;-69
2023/08/23 04:49:35;;;;;;;4.33;3.60;;;;;;;;;;5049135;28;20953;-69
2023/08/23 04:52:01;;;;;;;4.63;4.07;;;;;;;;;;5051414;28;20485;-69
2023/08/23 04:54:27;;;;;;;12.67;3.60;;;;;;;;;;5049317;28;20808;-69
2023/08/23 04:56:53;;;;;;;3.83;3.57;;;;;;;;;;5049917;28;20359;-69
2023/08/23 04:59:20;;;;;;;4.43;3.50;;;;;;;;;;5043769;28;20430;-71
2023/08/23 05:01:47;;;;;;;3.87;3.67;;;;;;;;;;5049570;28;20442;-69
2023/08/23 05:04:13;;;;;;;4.30;3.93;;;;;;;;;;5049287;28;20491;-68
2023/08/23 05:06:40;;;;;;;9.70;3.53;;;;;;;;;;5050691;28;20438;-69
2023/08/23 05:09:06;;;;;;;7.63;3.80;;;;;;;;;;5048335;28;20807;-70
2023/08/23 05:11:32;;;;;;;3.97;3.67;;;;;;;;;;5044286;28;20442;-71
2023/08/23 05:13:58;;;;;;;4.80;4.50;;;;;;;;;;5049994;28;20853;-70
2023/08/23 05:16:24;;;;;;;4.80;4.13;;;;;;;;;;5049162;28;21169;-70
2023/08/23 05:18:50;;;;;;;4.00;3.70;;;;;;;;;;5046930;28;20423;-70
2023/08/23 05:21:16;;;;;;;4.50;3.83;;;;;;;;;;5047626;28;20838;-70
2023/08/23 05:23:42;;;;;;;8.40;4.23;;;;;;;;;;5050127;28;20423;-69
2023/08/23 05:26:08;;;;;;;4.83;4.50;;;;;;;;;;5047603;28;20570;-70
2023/08/23 05:28:34;;;;;;;3.97;3.73;;;;;;;;;;5048373;28;20434;-72
2023/08/23 05:31:02;;;;;;;5.97;5.50;;;;;;;;;;5044972;28;20809;-69
2023/08/23 05:33:29;;;;;;;5.80;3.70;;;;;;;;;;5044369;28;20563;-69
2023/08/23 05:35:55;;;;;;;7.63;3.97;;;;;;;;;;5045062;28;20985;-70
2023/08/23 05:38:23;;;;;;;3.80;3.60;;;;;;;;;;5049170;28;20414;-71
2023/08/23 05:40:50;;;;;;;3.67;3.47;;;;;;;;;;5042038;28;20427;-70
2023/08/23 05:43:17;;;;;;;6.57;4.40;;;;;;;;;;5044365;28;20441;-70
2023/08/23 05:45:43;;;;;;;5.37;4.40;;;;;;;;;;5046980;28;20533;-71
2023/08/23 05:48:09;;;;;;;8.80;3.93;;;;;;;;;;5049226;28;20422;-69
2023/08/23 05:50:37;;;;;;;7.53;3.87;;;;;;;;;;5049233;28;20789;-70
2023/08/23 05:53:09;;;;;;;8.83;4.70;;;;;;;;;;5046159;28;20478;-70
2023/08/23 05:55:35;;;;;;;4.03;3.60;;;;;;;;;;5047875;28;20480;-70
2023/08/23 05:58:01;;;;;;;6.47;4.40;;;;;;;;;;5043886;28;20984;-69
2023/08/23 06:00:27;;;;;;;4.37;4.17;;;;;;;;;;5045284;28;20454;-70
2023/08/23 06:02:54;;;;;;;9.07;3.90;;;;;;;;;;5049440;28;20434;-69
2023/08/23 06:05:20;;;;;;;6.97;4.50;;;;;;;;;;5049724;28;20505;-69
2023/08/23 06:07:45;;;;;;;9.80;3.60;;;;;;;;;;5047329;28;20517;-69
2023/08/23 06:10:11;;;;;;;14.20;4.60;;;;;;;;;;5044873;28;20533;-70
2023/08/23 06:12:38;;;;;;;4.67;4.30;;;;;;;;;;5048689;28;20430;-71
2023/08/23 06:15:05;;;;;;;5.10;3.90;;;;;;;;;;5048903;28;20474;-72
2023/08/23 06:17:31;;;;;;;4.83;4.40;;;;;;;;;;5047333;28;20442;-70
2023/08/23 06:19:57;;;;;;;5.13;4.67;;;;;;;;;;5048291;28;20450;-69
2023/08/23 06:22:23;;;;;;;5.23;4.73;;;;;;;;;;5049977;28;20940;-69
2023/08/23 06:24:49;;;;;;;6.33;4.13;;;;;;;;;;5046752;28;20435;-70
2023/08/23 06:27:15;;;;;;;10.40;4.23;;;;;;;;;;5048656;28;20449;-69
2023/08/23 06:29:41;;;;;;;5.90;5.00;;;;;;;;;;5047078;28;20446;-70
2023/08/23 06:32:07;;;;;;;4.37;4.07;;;;;;;;;;5050300;28;20417;-71
2023/08/23 06:34:34;;;;;;;4.37;4.17;;;;;;;;;;5049186;28;20450;-69
2023/08/23 06:37:00;;;;;;;9.77;4.27;;;;;;;;;;5046033;28;20547;-68
2023/08/23 06:39:26;;;;;;;9.60;4.97;;;;;;;;;;5048700;28;20922;-70
2023/08/23 06:41:52;;;;;;;5.70;4.20;;;;;;;;;;5050406;28;20535;-70
2023/08/23 06:44:17;;;;;;;8.77;4.47;;;;;;;;;;5049214;28;20761;-69
2023/08/23 06:46:43;;;;;;;6.40;4.13;;;;;;;;;;5047442;28;20426;-69
2023/08/23 06:49:10;;;;;;;6.23;4.80;;;;;;;;;;5043183;28;20258;-69
2023/08/23 06:51:36;;;;;;;5.20;4.83;;;;;;;;;;5047368;28;20187;-71
2023/08/23 06:54:02;;;;;;;4.20;3.93;;;;;;;;;;5040306;28;20547;-71
2023/08/23 06:56:29;;;;;;;4.83;4.37;;;;;;;;;;5045215;28;20486;-69
2023/08/23 06:58:55;;;;;;;5.63;4.27;;;;;;;;;;5039996;28;21958;-72
2023/08/23 07:01:22;;;;;;;4.83;4.53;;;;;;;;;;5042391;28;20860;-69
2023/08/23 07:03:48;;;;;;;16.07;4.90;;;;;;;;;;5046389;28;20803;-70
2023/08/23 07:06:14;;;;;;;4.90;4.50;;;;;;;;;;5044979;28;20946;-70
2023/08/23 07:08:41;;;;;;;5.17;4.77;;;;;;;;;;5049823;28;20279;-70
2023/08/23 07:11:08;;;;;;;6.07;5.40;;;;;;;;;;5048809;28;20525;-70
2023/08/23 07:13:35;;;;;;;10.50;4.50;;;;;;;;;;5046057;28;20447;-70
2023/08/23 07:16:01;;;;;;;4.83;4.20;;;;;;;;;;5044019;28;20485;-70
2023/08/23 07:18:28;;;;;;;7.50;5.00;;;;;;;;;;5049293;28;20457;-70
2023/08/23 07:20:54;;;;;;;4.67;4.47;;;;;;;;;;5049867;28;20441;-70
2023/08/23 07:23:20;;;;;;;5.73;4.07;;;;;;;;;;5043717;28;20537;-70
2023/08/23 07:25:46;;;;;;;3.90;3.60;;;;;;;;;;5043829;28;20431;-70
2023/08/23 07:28:12;;;;;;;5.10;4.83;;;;;;;;;;5045896;28;20811;-70
2023/08/23 07:30:38;;;;;;;4.13;4.00;;;;;;;;;;5049471;28;20428;-70
2023/08/23 07:33:05;;;;;;;6.43;4.50;;;;;;;;;;5043723;28;20499;-71
2023/08/23 07:35:31;;;;;;;8.70;4.90;;;;;;;;;;5046774;28;20948;-70
2023/08/23 07:37:56;;;;;;;4.53;4.20;;;;;;;;;;5050332;28;20549;-70
2023/08/23 07:40:22;;;;;;;10.60;3.90;;;;;;;;;;5049564;28;20816;-71
2023/08/23 07:42:48;;;;;;;4.50;4.10;;;;;;;;;;5046236;28;20780;-69
2023/08/23 07:45:14;;;;;;;4.47;4.00;;;;;;;;;;5048327;28;20283;-69
2023/08/23 07:47:40;;;;;;;8.63;4.33;;;;;;;;;;5049450;28;20200;-69
2023/08/23 07:50:06;;;;;;;5.00;4.17;;;;;;;;;;5032501;28;20211;-69
2023/08/23 07:52:32;;;;;;;7.60;3.97;;;;;;;;;;5048247;28;20515;-69
2023/08/23 07:54:58;;;;;;;5.27;4.83;;;;;;;;;;5045184;28;20455;-70
2023/08/23 07:57:24;;;;;;;8.03;4.53;;;;;;;;;;5044813;28;20450;-68
2023/08/23 07:59:50;;;;;;;10.40;4.60;;;;;;;;;;5045050;28;20439;-70
2023/08/23 08:02:16;;;;;;;9.20;4.00;;;;;;;;;;5046184;28;20938;-69
2023/08/23 08:04:43;;;;;;;5.77;5.07;;;;;;;;;;5048237;28;20430;-69
2023/08/23 08:07:09;;;;;;;5.40;4.33;;;;;;;;;;5046767;28;20842;-71
2023/08/23 08:09:35;;;;;;;4.50;4.20;;;;;;;;;;5046783;28;20891;-71
2023/08/23 08:12:01;;;;;;;4.80;4.33;;;;;;;;;;5050182;28;20454;-69
2023/08/23 08:14:27;;;;;;;26.57;5.23;;;;;;;;;;5040404;28;20968;-70
2023/08/23 08:16:53;;;;;;;11.73;4.53;;;;;;;;;;5043023;28;20499;-69
2023/08/23 08:19:18;;;;;;;9.57;4.37;;;;;;;;;;5048966;28;20480;-71
2023/08/23 08:21:44;;;;;;;4.87;4.57;;;;;;;;;;5047530;28;21017;-70
2023/08/23 08:24:10;;;;;;;8.00;4.73;;;;;;;;;;5049872;28;20628;-69
2023/08/23 08:26:36;;;;;;;5.77;4.20;;;;;;;;;;5049757;28;20550;-68
2023/08/23 08:29:02;;;;;;;4.10;3.90;;;;;;;;;;5048983;28;20518;-69
2023/08/23 08:31:29;;;;;;;4.83;3.83;;;;;;;;;;5051632;28;20434;-72
2023/08/23 08:33:57;;;;;;;5.10;4.10;;;;;;;;;;5061513;28;20514;-71
2023/08/23 08:36:23;;;;;;;12.70;6.23;;;;;;;;;;5050995;28;20978;-71
2023/08/23 08:38:49;;;;;;;3.60;3.50;;;;;;;;;;5045230;28;20470;-72
2023/08/23 08:41:16;;;;;;;6.47;4.53;;;;;;;;;;5044720;28;20484;-72
2023/08/23 08:43:42;;;;;;;5.47;4.90;;;;;;;;;;5043294;28;20445;-71
2023/08/23 08:46:08;;;;;;;3.80;3.60;;;;;;;;;;5046019;28;20450;-71
2023/08/23 08:48:34;;;;;;;4.50;3.70;;;;;;;;;;5050690;28;21389;-72
2023/08/23 08:51:00;;;;;;;6.83;4.60;;;;;;;;;;5050419;28;20530;-73
2023/08/23 08:53:26;;;;;;;3.50;3.40;;;;;;;;;;5050855;28;20973;-72
2023/08/23 08:55:52;;;;;;;5.30;4.70;;;;;;;;;;5049099;28;20493;-70
2023/08/23 08:58:19;;;;;;;4.70;4.33;;;;;;;;;;5049856;28;20433;-72
2023/08/23 09:00:48;;;;;;;4.17;3.87;;;;;;;;;;5048095;28;20450;-71
2023/08/23 09:03:14;;;;;;;6.73;4.40;;;;;;;;;;5048358;28;20450;-72
2023/08/23 09:05:40;;;;;;;7.63;4.20;;;;;;;;;;5048872;28;20446;-70
2023/08/23 09:08:07;;;;;;;4.50;4.27;;;;;;;;;;5050443;28;20411;-72
2023/08/23 09:10:33;;;;;;;4.03;3.50;;;;;;;;;;5049908;28;20441;-69
2023/08/23 09:12:59;;;;;;;5.60;3.80;;;;;;;;;;5049373;28;20422;-69
2023/08/23 09:15:25;;;;;;;4.40;4.00;;;;;;;;;;5050559;28;20466;-70
2023/08/23 09:17:53;;;;;;;8.27;4.17;;;;;;;;;;5050809;28;20434;-71
2023/08/23 09:20:21;;;;;;;4.60;4.20;;;;;;;;;;5049320;28;20434;-73
2023/08/23 09:22:51;;;;;;;15.10;3.90;;;;;;;;;;5049823;28;20496;-73
2023/08/23 09:25:17;;;;;;;4.80;3.97;;;;;;;;;;5049616;28;20434;-73
2023/08/23 09:27:44;;;;;;;4.70;4.27;;;;;;;;;;5048973;28;20521;-70
2023/08/23 09:30:10;;;;;;;4.87;4.47;;;;;;;;;;5046651;28;20430;-70
2023/08/23 09:32:36;;;;;;;5.13;3.97;;;;;;;;;;5049209;28;20439;-71
2023/08/23 09:35:15;;;;;;;5.27;4.83;;;;;;;;;;5050406;28;20438;-72
2023/08/23 09:37:41;;;;;;;6.43;4.30;;;;;;;;;;5048082;28;20453;-71
2023/08/23 09:40:15;;;;;;;5.13;3.80;;;;;;;;;;5049438;28;20437;-70
2023/08/23 09:42:42;;;;;;;3.60;3.30;;;;;;;;;;5049153;28;20436;-70
2023/08/23 09:45:08;;;;;;;4.90;4.10;;;;;;;;;;5046335;28;20434;-72
2023/08/23 09:47:34;;;;;;;4.10;3.77;;;;;;;;;;5050962;28;20892;-69
2023/08/23 09:50:03;;;;;;;5.63;3.30;;;;;;;;;;5040848;28;20449;-68
2023/08/23 09:52:31;;;;;;;7.33;3.60;;;;;;;;;;5049370;28;20481;-69
2023/08/23 09:55:00;;;;;;;3.80;3.60;;;;;;;;;;5044175;28;20427;-69
2023/08/23 09:57:27;;;;;;;4.17;3.83;;;;;;;;;;5045615;28;21118;-72
2023/08/23 09:59:53;;;;;;;5.53;3.80;;;;;;;;;;5049351;28;20469;-70
2023/08/23 10:02:19;;;;;;;3.90;3.50;;;;;;;;;;5047507;28;20521;-70
2023/08/23 10:04:45;;;;;;;8.83;4.67;;;;;;;;;;5047051;28;20518;-71
2023/08/23 10:07:15;;;;;;;4.60;3.70;;;;;;;;;;5043846;28;20430;-73
2023/08/23 10:09:41;;;;;;;6.13;3.77;;;;;;;;;;5049316;28;20948;-70
2023/08/23 10:12:11;;;;;;;4.20;3.90;;;;;;;;;;5044628;28;20521;-69
2023/08/23 10:14:38;;;;;;;5.17;3.87;;;;;;;;;;5047564;28;20517;-71
2023/08/23 10:17:05;;;;;;;4.10;3.80;;;;;;;;;;5049862;28;21922;-70
2023/08/23 10:19:32;;;;;;;3.90;3.70;;;;;;;;;;5050455;28;20418;-69
2023/08/23 10:21:58;;;;;;;9.23;3.63;;;;;;;;;;5046012;28;20943;-69
2023/08/23 10:24:34;;;;;;;4.17;3.23;;;;;;;;;;5049037;28;20442;-69
2023/08/23 10:27:07;;;;;;;6.50;3.67;;;;;;;;;;5046650;28;20441;-70
2023/08/23 10:29:34;;;;;;;3.57;3.40;;;;;;;;;;5047585;28;20414;-69
2023/08/23 10:32:05;;;;;;;3.50;3.30;;;;;;;;;;5050179;28;20410;-69
2023/08/23 10:34:33;;;;;;;3.33;3.13;;;;;;;;;;5049651;28;20430;-69
2023/08/23 10:36:59;;;;;;;6.67;3.40;;;;;;;;;;5047144;28;20481;-72
2023/08/23 10:39:25;;;;;;;9.43;3.27;;;;;;;;;;5047927;28;20429;-71
2023/08/23 10:41:52;;;;;;;3.90;2.60;;;;;;;;;;5047020;28;20438;-71
2023/08/23 10:44:18;;;;;;;6.70;2.63;;;;;;;;;;5047753;28;20454;-73
2023/08/23 10:46:45;;;;;;;2.57;2.37;;;;;;;;;;5047225;28;20935;-69
2023/08/23 10:49:12;;;;;;;7.93;3.90;;;;;;;;;;5047130;28;20926;-70
2023/08/23 10:51:42;;;;;;;4.50;4.03;;;;;;;;;;5046041;28;20564;-69
2023/08/23 10:54:12;;;;;;;3.93;2.87;;;;;;;;;;5046694;28;20804;-69
2023/08/23 10:56:38;;;;;;;5.77;3.60;;;;;;;;;;5048543;28;20576;-69
2023/08/23 10:59:06;;;;;;;4.10;3.17;;;;;;;;;;5046181;28;20491;-71
2023/08/23 11:01:33;;;;;;;13.03;2.77;;;;;;;;;;5047656;28;20427;-70
2023/08/23 11:03:59;;;;;;;3.00;2.80;;;;;;;;;;5049390;28;20449;-64
2023/08/23 11:06:27;;;;;;;3.80;2.90;;;;;;;;;;5045675;28;20426;-64
2023/08/23 11:08:53;;;;;;;7.50;3.13;;;;;;;;;;5045859;28;20436;-65
2023/08/23 11:11:19;;;;;;;5.70;2.97;;;;;;;;;;5047622;28;20434;-66
2023/08/23 11:13:46;;;;;;;7.27;3.57;;;;;;;;;;5049469;28;20228;-68
2023/08/23 11:16:13;;;;;;;3.53;3.10;;;;;;;;;;5044083;28;20862;-66
2023/08/23 11:18:39;;;;;;;6.97;3.20;;;;;;;;;;5046322;28;20481;-65
2023/08/23 11:21:06;;;;;;;4.30;3.10;;;;;;;;;;5047027;28;20458;-65
2023/08/23 11:23:32;;;;;;;3.00;2.90;;;;;;;;;;5045169;28;20478;-66
2023/08/23 11:25:58;;;;;;;9.33;3.23;;;;;;;;;;5046419;28;20480;-69
2023/08/23 11:28:24;;;;;;;4.07;3.80;;;;;;;;;;5056711;28;20444;-70
2023/08/23 11:30:50;;;;;;;3.67;3.30;;;;;;;;;;5046805;28;20437;-70
2023/08/23 11:33:16;;;;;;;3.83;3.43;;;;;;;;;;5043371;28;20434;-70
2023/08/23 11:35:42;;;;;;;3.00;2.73;;;;;;;;;;5047608;28;20560;-69
2023/08/23 11:38:08;;;;;;;3.40;3.23;;;;;;;;;;5047177;28;20517;-69
2023/08/23 11:40:34;;;;;;;8.77;3.40;;;;;;;;;;5045855;28;21002;-72
2023/08/23 11:43:04;;;;;;;2.63;2.53;;;;;;;;;;5047878;28;20422;-69
2023/08/23 11:45:36;;;;;;;3.40;3.17;;;;;;;;;;5046229;28;20942;-73
2023/08/23 11:48:02;;;;;;;3.90;3.60;;;;;;;;;;5048795;28;20511;-70
2023/08/23 11:50:28;;;;;;;3.57;3.37;;;;;;;;;;5049347;28;20429;-70
2023/08/23 11:52:54;;;;;;;4.67;4.13;;;;;;;;;;5045227;28;20474;-70
2023/08/23 11:55:21;;;;;;;2.97;2.73;;;;;;;;;;5044858;28;20473;-70
2023/08/23 11:57:52;;;;;;;3.53;3.23;;;;;;;;;;5048505;28;20571;-72
2023/08/23 12:00:18;;;;;;;4.07;3.37;;;;;;;;;;5047008;28;20422;-69
2023/08/23 12:02:44;;;;;;;4.63;3.27;;;;;;;;;;5045843;28;20442;-69
2023/08/23 12:05:13;;;;;;;3.00;2.80;;;;;;;;;;5048118;28;20188;-69
2023/08/23 12:07:39;;;;;;;3.90;3.60;;;;;;;;;;5045489;28;20434;-70
2023/08/23 12:10:08;;;;;;;3.77;3.67;;;;;;;;;;5045302;28;20977;-69
2023/08/23 12:12:35;;;;;;;13.33;4.47;;;;;;;;;;5047808;28;20434;-68
2023/08/23 12:15:01;;;;;;;8.77;3.50;;;;;;;;;;5046176;28;20439;-69
2023/08/23 12:17:30;;;;;;;6.80;4.30;;;;;;;;;;5046225;28;20453;-69
2023/08/23 12:19:56;;;;;;;5.03;3.50;;;;;;;;;;5047766;28;20429;-69
2023/08/23 12:22:23;;;;;;;3.23;3.10;;;;;;;;;;5051745;28;20434;-69
2023/08/23 12:24:48;;;;;;;6.90;4.20;;;;;;;;;;5048023;28;20472;-70
2023/08/23 12:27:14;;;;;;;4.47;3.47;;;;;;;;;;5047094;28;20470;-71
2023/08/23 12:29:41;;;;;;;9.50;4.20;;;;;;;;;;5048356;28;20969;-70
2023/08/23 12:32:07;;;;;;;4.10;3.80;;;;;;;;;;5051205;28;20191;-73
2023/08/23 12:34:33;;;;;;;5.00;4.50;;;;;;;;;;5047420;28;20522;-71
2023/08/23 12:36:59;;;;;;;3.87;3.77;;;;;;;;;;5047648;28;20944;-70
2023/08/23 12:39:25;;;;;;;3.77;3.57;;;;;;;;;;5051570;28;20422;-72
2023/08/23 12:41:52;;;;;;;6.90;3.70;;;;;;;;;;5048128;28;20430;-73
2023/08/23 12:44:18;;;;;;;13.50;3.43;;;;;;;;;;5047155;28;20461;-72
2023/08/23 12:46:44;;;;;;;5.53;3.60;;;;;;;;;;5050124;28;20473;-70
2023/08/23 12:49:12;;;;;;;4.40;4.00;;;;;;;;;;5045592;28;20439;-69
2023/08/23 12:51:41;;;;;;;9.70;3.70;;;;;;;;;;5049975;28;20447;-69
2023/08/23 12:54:07;;;;;;;4.40;4.17;;;;;;;;;;5051532;28;20786;-69
2023/08/23 12:56:34;;;;;;;3.83;3.50;;;;;;;;;;5051282;28;20466;-69
2023/08/23 12:59:00;;;;;;;3.73;3.37;;;;;;;;;;5045520;28;20950;-69
2023/08/23 13:01:26;;;;;;;5.43;3.70;;;;;;;;;;5045938;28;20956;-70
2023/08/23 13:03:52;;;;;;;5.10;3.83;;;;;;;;;;5052037;28;20922;-69
2023/08/23 13:06:18;;;;;;;2.97;2.87;;;;;;;;;;5050519;28;20422;-69
2023/08/23 13:08:44;;;;;;;4.90;3.53;;;;;;;;;;5050132;28;20471;-70
2023/08/23 13:11:10;;;;;;;6.20;3.57;;;;;;;;;;5051019;28;20521;-70
2023/08/23 13:13:36;;;;;;;3.33;2.80;;;;;;;;;;5050905;28;20438;-70
2023/08/23 13:16:02;;;;;;;4.83;3.80;;;;;;;;;;5051176;28;20233;-69
2023/08/23 13:18:28;;;;;;;4.60;3.83;;;;;;;;;;5051120;28;20418;-69
2023/08/23 13:20:54;;;;;;;6.50;3.33;;;;;;;;;;5051010;28;20430;-69
2023/08/23 13:23:20;;;;;;;5.03;3.47;;;;;;;;;;5049649;28;20183;-70
2023/08/23 13:25:46;;;;;;;4.17;3.40;;;;;;;;;;5046856;28;20476;-69
2023/08/23 13:28:12;;;;;;;6.53;3.73;;;;;;;;;;5047687;28;21022;-69
2023/08/23 13:30:38;;;;;;;3.03;2.93;;;;;;;;;;5049391;28;20418;-70
2023/08/23 13:33:04;;;;;;;3.47;3.27;;;;;;;;;;5050347;28;20184;-69
2023/08/23 13:35:30;;;;;;;4.73;3.30;;;;;;;;;;5051012;28;20474;-70
2023/08/23 13:37:56;;;;;;;4.23;3.83;;;;;;;;;;5044112;28;20483;-71
2023/08/23 13:40:22;;;;;;;4.07;3.87;;;;;;;;;;5047605;28;20430;-69
2023/08/23 13:42:49;;;;;;;4.90;3.50;;;;;;;;;;5050373;28;20433;-69
2023/08/23 13:45:15;;;;;;;7.77;3.87;;;;;;;;;;5048487;28;20454;-69
2023/08/23 13:47:41;;;;;;;6.53;3.80;;;;;;;;;;5045631;28;20449;-69
2023/08/23 13:50:09;;;;;;;3.20;3.10;;;;;;;;;;5042928;28;20961;-69
2023/08/23 13:52:35;;;;;;;11.23;3.60;;;;;;;;;;5044376;28;20505;-69
2023/08/23 13:55:01;;;;;;;4.17;3.70;;;;;;;;;;5042636;28;20475;-69
2023/08/23 13:57:27;;;;;;;3.90;3.57;;;;;;;;;;5041148;28;20437;-72
2023/08/23 13:59:53;;;;;;;4.27;3.70;;;;;;;;;;5044661;28;20450;-74
2023/08/23 14:02:18;;;;;;;3.20;3.00;;;;;;;;;;5046245;28;20961;-75
2023/08/23 14:04:44;;;;;;;3.40;3.30;;;;;;;;;;5037474;28;20446;-69
2023/08/23 14:07:10;;;;;;;3.53;3.23;;;;;;;;;;5045965;28;20478;-69
2023/08/23 14:09:36;;;;;;;3.50;3.30;;;;;;;;;;5050369;28;20793;-68
2023/08/23 14:12:02;;;;;;;3.40;3.17;;;;;;;;;;5050914;28;20426;-69
2023/08/23 14:14:28;;;;;;;3.00;2.80;;;;;;;;;;5050725;28;20427;-69
2023/08/23 14:16:54;;;;;;;2.97;2.73;;;;;;;;;;5050169;28;20538;-69
2023/08/23 14:19:21;;;;;;;3.77;3.57;;;;;;;;;;5049981;28;20422;-69
2023/08/23 14:21:48;;;;;;;4.10;3.70;;;;;;;;;;5048214;28;20203;-69
2023/08/23 14:24:14;;;;;;;3.37;3.27;;;;;;;;;;5050365;28;20434;-68
2023/08/23 14:26:40;;;;;;;3.70;3.37;;;;;;;;;;5050242;28;20438;-69
2023/08/23 14:29:06;;;;;;;3.00;2.90;;;;;;;;;;5050798;28;20419;-69
2023/08/23 14:31:32;;;;;;;8.00;3.20;;;;;;;;;;5048977;28;20433;-68
2023/08/23 14:33:58;;;;;;;3.77;3.17;;;;;;;;;;5050478;28;20498;-69
2023/08/23 14:36:24;;;;;;;6.30;4.63;;;;;;;;;;5047290;28;20277;-69
2023/08/23 14:38:51;;;;;;;4.77;3.57;;;;;;;;;;5050128;28;20422;-70